This is the latest recevied weather packets stored in our database for station/object NI4CE-10. If no packets are shown the sender has not sent any weather packets the latest 10 day(s).
| Time | Temp. | Humidity | Pressure | Rain* | Wind** | Luminosity | Snow |
|---|---|---|---|---|---|---|---|
| 1778286967 | 28.33° C | 100% | 1015.5 hPa | 0 mm | - | - | - |
| 1778286927 | 27.22° C | 100% | 1015.9 hPa | 0 mm | - | - | - |
| 1778286923 | 28.33° C | 100% | 1015.5 hPa | 0 mm | - | - | - |
| 1778286703 | 27.22° C | 100% | 1015.9 hPa | 0 mm | - | - | - |
| 1778286627 | 27.22° C | 100% | 1015.9 hPa | 0 mm | - | - | - |
| 1778286421 | 27.22° C | 100% | 1015.8 hPa | 0 mm | - | - | - |
| 1778286327 | 27.22° C | 100% | 1015.8 hPa | 0 mm | - | - | - |
| 1778286103 | 27.78° C | 100% | 1015.7 hPa | 0 mm | - | - | - |
| 1778286027 | 27.78° C | 100% | 1015.7 hPa | 0 mm | - | - | - |
| 1778285727 | 27.78° C | 100% | 1015.7 hPa | 0 mm | - | - | - |
| 1778285427 | 28.33° C | 100% | 1015.6 hPa | 0 mm | - | - | - |
| 1778285179 | 28.33° C | 100% | 1015.5 hPa | 0 mm | - | - | - |
| 1778285127 | 28.33° C | 100% | 1015.5 hPa | 0 mm | - | - | - |
| 1778284934 | 28.33° C | 100% | 1015.4 hPa | 0 mm | - | - | - |
| 1778284877 | 28.33° C | 100% | 1015.4 hPa | 0 mm | - | - | - |
| 1778284827 | 28.33° C | 100% | 1015.4 hPa | 0 mm | - | - | - |
| 1778284527 | 28.89° C | 100% | 1015.4 hPa | 0 mm | - | - | - |
| 1778284227 | 29.44° C | 100% | 1015.4 hPa | 0 mm | - | - | - |
| 1778283927 | 29.44° C | 100% | 1015.3 hPa | 0 mm | - | - | - |
| 1778283700 | 30° C | 100% | 1015.1 hPa | 0 mm | - | - | - |
| 1778283627 | 29.44° C | 100% | 1015.2 hPa | 0 mm | - | - | - |
| 1778283421 | 30° C | 100% | 1015.1 hPa | 0 mm | - | - | - |
| 1778283327 | 30° C | 100% | 1015.1 hPa | 0 mm | - | - | - |
| 1778283108 | 30° C | 100% | 1015.1 hPa | 0 mm | - | - | - |
| 1778283027 | 30° C | 100% | 1015.1 hPa | 0 mm | - | - | - |
* Rain latest hour (hover to see other rain measurements)
** Current wind speed in m/s (hover to see current wind gust speed)